Time;durP1;ratioP1;P1;durP2;ratioP2;P2;SDS_P1;SDS_P2;PMS_P1;PMS_P2;Temp;Humidity;BMP_temperature;BMP_pressure;BME280_temperature;BME280_humidity;BME280_pressure;Samples;Min_cycle;Max_cycle;Signal;HPM_P1;HPM_P2
2024/01/11 00:01:10;;;;;;;2.63;1.90;;;1.30;99.90;;;;;;7396076;19;20147;-79
2024/01/11 00:03:37;;;;;;;3.40;2.03;;;1.20;99.90;;;;;;7398687;19;20513;-80
2024/01/11 00:06:04;;;;;;;2.87;2.47;;;1.30;99.90;;;;;;7396005;19;20242;-78
2024/01/11 00:08:30;;;;;;;2.67;2.47;;;1.30;99.90;;;;;;7395267;19;20670;-79
2024/01/11 00:10:55;;;;;;;2.30;2.10;;;1.30;99.90;;;;;;7394677;19;20135;-80
2024/01/11 00:13:21;;;;;;;2.47;2.30;;;1.10;99.90;;;;;;7396155;19;20151;-79
2024/01/11 00:15:47;;;;;;;2.13;1.70;;;1.20;99.90;;;;;;7395397;19;20652;-78
2024/01/11 00:18:13;;;;;;;1.90;1.67;;;1.10;99.90;;;;;;7396565;19;20154;-78
2024/01/11 00:20:38;;;;;;;2.57;1.80;;;0.80;99.90;;;;;;7393425;19;20424;-79
2024/01/11 00:23:04;;;;;;;3.03;2.53;;;0.90;99.90;;;;;;7394731;19;20194;-79
2024/01/11 00:25:30;;;;;;;5.13;3.53;;;1.00;99.90;;;;;;7395617;19;20135;-80
2024/01/11 00:27:56;;;;;;;4.57;2.37;;;1.10;99.90;;;;;;7396120;19;20753;-78
2024/01/11 00:30:23;;;;;;;2.80;2.60;;;1.00;99.90;;;;;;7396486;19;20139;-79
2024/01/11 00:32:49;;;;;;;3.37;1.80;;;1.10;99.90;;;;;;7397067;19;20158;-78
2024/01/11 00:35:14;;;;;;;3.63;2.77;;;1.10;99.90;;;;;;7394770;19;20150;-78
2024/01/11 00:37:40;;;;;;;2.43;2.10;;;1.00;99.90;;;;;;7396704;19;20222;-79
2024/01/11 00:40:07;;;;;;;5.73;4.53;;;1.00;99.90;;;;;;7395485;19;20166;-78
2024/01/11 00:42:34;;;;;;;3.70;2.33;;;1.00;99.90;;;;;;7394011;19;20145;-79
2024/01/11 00:45:00;;;;;;;3.13;2.83;;;1.00;99.90;;;;;;7395355;19;20130;-78
2024/01/11 00:47:27;;;;;;;3.50;3.13;;;1.00;99.90;;;;;;7394548;19;20201;-77
2024/01/11 00:49:54;;;;;;;2.27;2.07;;;1.00;99.90;;;;;;7389990;19;20201;-80
2024/01/11 00:52:20;;;;;;;3.47;2.10;;;1.00;99.90;;;;;;7391041;19;20166;-78
2024/01/11 00:54:45;;;;;;;5.13;2.33;;;1.00;99.90;;;;;;7393633;19;20138;-79
2024/01/11 00:57:11;;;;;;;4.60;2.13;;;1.00;99.90;;;;;;7393814;19;20139;-77
2024/01/11 00:59:37;;;;;;;1.97;1.83;;;1.00;99.90;;;;;;7394399;19;20933;-80
2024/01/11 01:02:03;;;;;;;3.20;2.90;;;1.00;99.90;;;;;;7392584;19;20150;-78
2024/01/11 01:04:28;;;;;;;3.60;2.83;;;1.00;99.90;;;;;;7391738;19;20177;-79
2024/01/11 01:06:54;;;;;;;3.33;2.23;;;1.00;99.90;;;;;;7394161;19;20147;-79
2024/01/11 01:09:21;;;;;;;3.13;2.20;;;1.00;99.90;;;;;;7393838;19;20159;-80
2024/01/11 01:11:46;;;;;;;3.47;2.20;;;0.90;99.90;;;;;;7393095;19;20131;-79
2024/01/11 01:14:12;;;;;;;3.63;2.80;;;1.00;99.90;;;;;;7393457;19;20150;-78
2024/01/11 01:16:38;;;;;;;2.87;1.97;;;0.90;99.90;;;;;;7395688;19;20168;-78
2024/01/11 01:19:03;;;;;;;3.77;2.30;;;0.80;99.90;;;;;;7390684;19;20473;-76
2024/01/11 01:21:29;;;;;;;3.00;2.70;;;0.90;99.90;;;;;;7394877;19;20515;-77
2024/01/11 01:23:55;;;;;;;2.97;2.70;;;1.00;99.90;;;;;;7392886;19;20604;-78
2024/01/11 01:26:21;;;;;;;6.00;3.13;;;0.90;99.90;;;;;;7394852;19;20202;-78
2024/01/11 01:28:47;;;;;;;2.77;2.37;;;0.90;99.90;;;;;;7390383;19;20173;-78
2024/01/11 01:31:14;;;;;;;2.67;1.83;;;1.00;99.90;;;;;;7391534;19;20165;-78
2024/01/11 01:33:40;;;;;;;3.67;2.17;;;0.80;99.90;;;;;;7392890;19;20631;-79
2024/01/11 01:36:10;;;;;;;2.50;2.30;;;0.80;99.90;;;;;;7393516;19;20143;-78
2024/01/11 01:38:35;;;;;;;4.43;3.20;;;0.80;99.90;;;;;;7392064;19;20175;-78
2024/01/11 01:41:01;;;;;;;2.10;1.90;;;0.90;99.90;;;;;;7394755;19;20218;-77
2024/01/11 01:43:27;;;;;;;2.90;2.37;;;0.80;99.90;;;;;;7394138;19;20142;-79
2024/01/11 01:45:53;;;;;;;3.70;2.83;;;0.80;99.90;;;;;;7393163;19;20143;-79
2024/01/11 01:48:20;;;;;;;2.73;2.47;;;0.80;99.90;;;;;;7391202;19;20146;-79
2024/01/11 01:50:50;;;;;;;3.00;2.00;;;0.80;99.90;;;;;;7392996;19;20603;-79
2024/01/11 01:53:24;;;;;;;2.10;1.97;;;0.80;99.90;;;;;;7392831;19;20202;-80
2024/01/11 01:55:52;;;;;;;4.33;2.80;;;0.90;99.90;;;;;;7392079;19;20454;-78
2024/01/11 01:58:18;;;;;;;4.43;2.87;;;1.00;99.90;;;;;;7391706;19;20141;-78
2024/01/11 02:00:45;;;;;;;2.37;2.17;;;1.00;99.90;;;;;;7391006;19;20138;-78
2024/01/11 02:03:14;;;;;;;3.37;3.07;;;0.90;99.90;;;;;;7391268;19;20138;-79
2024/01/11 02:05:40;;;;;;;4.77;2.77;;;0.90;99.90;;;;;;7385472;19;20217;-79
2024/01/11 02:08:08;;;;;;;4.03;2.13;;;1.00;99.90;;;;;;7392341;19;20595;-79
2024/01/11 02:10:35;;;;;;;2.47;1.87;;;0.90;99.90;;;;;;7389910;19;20198;-79
2024/01/11 02:13:01;;;;;;;4.20;2.37;;;0.90;99.90;;;;;;7390123;19;20137;-77
2024/01/11 02:15:27;;;;;;;2.97;2.13;;;0.90;99.90;;;;;;7390625;19;20131;-79
2024/01/11 02:17:52;;;;;;;3.13;2.83;;;0.80;99.90;;;;;;7391959;19;20239;-79
2024/01/11 02:20:18;;;;;;;2.57;2.27;;;0.80;99.90;;;;;;7385563;19;20141;-79
2024/01/11 02:22:50;;;;;;;6.20;3.40;;;0.70;99.90;;;;;;7392848;19;20595;-79
2024/01/11 02:25:16;;;;;;;3.50;3.20;;;0.70;99.90;;;;;;7391736;19;20143;-79
2024/01/11 02:27:49;;;;;;;2.87;2.53;;;0.60;99.90;;;;;;7390068;19;20164;-78
2024/01/11 02:30:15;;;;;;;2.20;1.80;;;0.60;99.90;;;;;;7391340;19;20675;-79
2024/01/11 02:32:45;;;;;;;5.10;4.00;;;0.50;99.90;;;;;;7388413;19;20157;-78
2024/01/11 02:35:13;;;;;;;4.70;4.10;;;0.30;99.90;;;;;;7390805;19;20150;-78
2024/01/11 02:37:39;;;;;;;2.23;2.03;;;0.20;99.90;;;;;;7392286;19;20654;-78
2024/01/11 02:40:07;;;;;;;1.73;1.63;;;-0.30;99.90;;;;;;7389778;19;20154;-78
2024/01/11 02:42:34;;;;;;;4.07;2.87;;;-0.10;99.90;;;;;;7391391;19;20138;-79
2024/01/11 02:45:00;;;;;;;3.27;2.97;;;0.30;99.90;;;;;;7390239;19;20274;-77
2024/01/11 02:47:25;;;;;;;3.53;2.63;;;0.50;99.90;;;;;;7393628;19;20541;-79
2024/01/11 02:49:51;;;;;;;2.43;1.60;;;0.40;99.90;;;;;;7388885;19;20150;-79
2024/01/11 02:52:17;;;;;;;3.27;2.70;;;0.20;99.90;;;;;;7388278;19;20143;-78
2024/01/11 02:54:46;;;;;;;2.50;1.90;;;0.30;99.90;;;;;;7388164;19;20150;-78
2024/01/11 02:57:12;;;;;;;3.70;3.27;;;0.20;99.90;;;;;;7392628;19;20163;-78
2024/01/11 02:59:40;;;;;;;2.63;1.97;;;-0.30;99.90;;;;;;7387360;19;20123;-78
2024/01/11 03:02:06;;;;;;;2.60;2.40;;;0.00;99.90;;;;;;7392384;19;20144;-77
2024/01/11 03:04:31;;;;;;;2.77;2.13;;;0.20;99.90;;;;;;7388179;19;21549;-78
2024/01/11 03:06:57;;;;;;;2.93;2.70;;;0.40;99.90;;;;;;7389067;19;20213;-78
2024/01/11 03:09:23;;;;;;;3.40;3.10;;;0.50;99.90;;;;;;7390432;19;20135;-78
2024/01/11 03:11:48;;;;;;;2.90;2.70;;;0.50;99.90;;;;;;7389822;19;20139;-78
2024/01/11 03:14:14;;;;;;;2.90;2.60;;;0.50;99.90;;;;;;7389164;19;20164;-79
2024/01/11 03:16:41;;;;;;;3.23;2.57;;;0.40;99.90;;;;;;7388988;19;20141;-79
2024/01/11 03:19:09;;;;;;;3.20;2.93;;;0.40;99.90;;;;;;7388186;19;20491;-79
2024/01/11 03:21:35;;;;;;;2.03;1.80;;;0.30;99.90;;;;;;7389521;19;20162;-77
2024/01/11 03:24:01;;;;;;;4.17;2.80;;;0.10;99.90;;;;;;7388362;19;20134;-78
2024/01/11 03:26:27;;;;;;;3.60;2.37;;;0.20;99.90;;;;;;7387426;19;20133;-79
2024/01/11 03:28:52;;;;;;;2.87;2.53;;;0.20;99.90;;;;;;7387483;19;20514;-79
2024/01/11 03:31:18;;;;;;;5.23;2.77;;;0.30;99.90;;;;;;7388338;19;20141;-79
2024/01/11 03:33:44;;;;;;;2.17;1.87;;;0.20;99.90;;;;;;7387712;19;20505;-79
2024/01/11 03:36:10;;;;;;;2.87;2.67;;;0.00;99.90;;;;;;7389117;19;20209;-78
2024/01/11 03:38:36;;;;;;;2.77;2.50;;;-0.10;99.90;;;;;;7387392;19;20147;-81
2024/01/11 03:41:07;;;;;;;3.80;2.50;;;0.20;99.90;;;;;;7389238;19;20135;-79
2024/01/11 03:43:33;;;;;;;4.43;2.93;;;0.40;99.90;;;;;;7390783;19;20203;-79
2024/01/11 03:45:58;;;;;;;3.67;2.20;;;0.50;99.90;;;;;;7390988;19;20489;-79
2024/01/11 03:48:24;;;;;;;2.87;1.97;;;-0.10;99.90;;;;;;7387930;19;20150;-79
2024/01/11 03:50:50;;;;;;;3.33;1.90;;;-0.40;99.90;;;;;;7388385;19;20218;-79
2024/01/11 03:53:16;;;;;;;2.43;2.23;;;-1.30;99.90;;;;;;7389181;19;20138;-79
2024/01/11 03:55:41;;;;;;;2.70;2.47;;;-1.00;99.90;;;;;;7389310;19;20134;-79
2024/01/11 03:58:07;;;;;;;1.90;1.80;;;-0.80;99.90;;;;;;7388141;19;20142;-78
2024/01/11 04:00:33;;;;;;;2.27;2.00;;;-1.20;99.90;;;;;;7388443;19;20139;-78
2024/01/11 04:02:59;;;;;;;3.53;2.57;;;-1.60;99.90;;;;;;7387097;19;20163;-78
2024/01/11 04:05:25;;;;;;;2.23;2.03;;;-1.50;99.90;;;;;;7387043;19;20167;-79
2024/01/11 04:07:50;;;;;;;5.50;3.40;;;-1.00;99.90;;;;;;7387406;19;20158;-78
2024/01/11 04:10:18;;;;;;;4.43;2.43;;;-0.90;99.90;;;;;;7387857;19;20513;-78
2024/01/11 04:12:43;;;;;;;2.43;2.23;;;-0.70;99.90;;;;;;7385509;19;20188;-79
2024/01/11 04:15:13;;;;;;;2.57;2.27;;;-1.30;99.90;;;;;;7390630;19;20506;-79
2024/01/11 04:17:39;;;;;;;3.50;2.33;;;-0.80;99.90;;;;;;7388621;19;20142;-79
2024/01/11 04:20:06;;;;;;;2.67;2.47;;;-0.40;99.90;;;;;;7387878;19;20153;-78
2024/01/11 04:22:32;;;;;;;2.33;1.57;;;-0.10;99.90;;;;;;7386930;19;20497;-78
2024/01/11 04:24:58;;;;;;;5.07;2.67;;;0.00;99.90;;;;;;7387578;19;20143;-77
2024/01/11 04:27:23;;;;;;;3.57;2.70;;;0.00;99.90;;;;;;7387975;19;20142;-80
2024/01/11 04:29:49;;;;;;;3.20;2.57;;;-0.10;99.90;;;;;;7387887;19;20587;-78
2024/01/11 04:32:15;;;;;;;1.90;1.80;;;-0.10;99.90;;;;;;7384089;19;20150;-79
2024/01/11 04:34:41;;;;;;;2.57;2.37;;;-0.10;99.90;;;;;;7386903;19;20592;-78
2024/01/11 04:37:07;;;;;;;2.07;1.87;;;0.00;99.90;;;;;;7387134;19;20151;-79
2024/01/11 04:39:33;;;;;;;4.13;3.73;;;0.00;99.90;;;;;;7393163;19;20155;-79
2024/01/11 04:42:00;;;;;;;3.60;3.00;;;-0.10;99.90;;;;;;7394566;19;20135;-79
2024/01/11 04:44:26;;;;;;;3.20;2.80;;;-0.10;99.90;;;;;;7395093;19;20178;-79
2024/01/11 04:46:51;;;;;;;2.97;2.60;;;0.00;99.90;;;;;;7395234;19;20143;-79
2024/01/11 04:49:17;;;;;;;2.60;2.13;;;0.00;99.90;;;;;;7393762;19;20159;-78
2024/01/11 04:51:43;;;;;;;3.70;2.70;;;0.00;99.90;;;;;;7394152;19;20553;-78
2024/01/11 04:54:09;;;;;;;4.77;2.73;;;0.10;99.90;;;;;;7394708;19;20718;-79
2024/01/11 04:56:34;;;;;;;5.13;3.00;;;0.20;99.90;;;;;;7396703;19;20135;-78
2024/01/11 04:59:00;;;;;;;2.70;2.33;;;0.20;99.90;;;;;;7392315;19;20150;-79
2024/01/11 05:01:26;;;;;;;2.67;2.03;;;0.30;99.90;;;;;;7393264;19;20190;-79
2024/01/11 05:03:52;;;;;;;3.40;3.10;;;0.20;99.90;;;;;;7394041;19;20146;-79
2024/01/11 05:06:19;;;;;;;4.63;3.90;;;0.20;99.90;;;;;;7394490;19;20139;-78
2024/01/11 05:08:52;;;;;;;3.20;3.00;;;0.20;99.90;;;;;;7391549;19;20209;-80
2024/01/11 05:11:19;;;;;;;3.33;2.87;;;0.20;99.90;;;;;;7393421;19;20260;-79
2024/01/11 05:13:47;;;;;;;5.73;2.97;;;0.00;99.90;;;;;;7393433;19;20147;-79
2024/01/11 05:16:23;;;;;;;3.00;2.40;;;-0.20;99.90;;;;;;7393663;19;20138;-78
2024/01/11 05:18:49;;;;;;;5.20;3.43;;;-0.10;99.90;;;;;;7393370;19;20142;-80
2024/01/11 05:21:15;;;;;;;1.73;1.63;;;0.00;99.90;;;;;;7395662;19;20142;-78
2024/01/11 05:23:44;;;;;;;5.57;3.83;;;0.00;99.90;;;;;;7394544;19;20161;-77
2024/01/11 05:26:10;;;;;;;2.67;2.50;;;0.10;99.90;;;;;;7393893;19;20153;-78
2024/01/11 05:28:38;;;;;;;4.50;4.10;;;-0.20;99.90;;;;;;7389985;19;20162;-77
2024/01/11 05:31:09;;;;;;;2.63;2.33;;;-0.30;99.90;;;;;;7392570;19;20143;-77
2024/01/11 05:33:34;;;;;;;3.30;2.77;;;-0.20;99.90;;;;;;7391764;19;20178;-79
2024/01/11 05:36:00;;;;;;;4.37;2.60;;;-0.10;99.90;;;;;;7393477;19;20559;-78
2024/01/11 05:38:26;;;;;;;2.77;2.57;;;-0.20;99.90;;;;;;7392321;19;20138;-77
2024/01/11 05:40:52;;;;;;;3.27;2.10;;;-0.10;99.90;;;;;;7390934;19;20514;-78
2024/01/11 05:43:17;;;;;;;3.40;3.10;;;-0.20;99.90;;;;;;7391173;19;20134;-78
2024/01/11 05:45:43;;;;;;;2.30;2.10;;;-1.10;99.90;;;;;;7391384;19;20146;-78
2024/01/11 05:48:11;;;;;;;8.43;2.87;;;-1.10;99.90;;;;;;7390548;19;20162;-79
2024/01/11 05:50:37;;;;;;;6.63;3.30;;;-1.10;99.90;;;;;;7388205;19;20142;-78
2024/01/11 05:53:03;;;;;;;2.63;2.20;;;-1.00;99.90;;;;;;7394140;19;20131;-78
2024/01/11 05:55:29;;;;;;;3.77;2.63;;;-1.10;99.90;;;;;;7391478;19;20142;-77
2024/01/11 05:57:55;;;;;;;3.03;2.37;;;-0.60;99.90;;;;;;7391451;19;20146;-80
2024/01/11 06:00:20;;;;;;;2.90;2.57;;;-0.40;99.90;;;;;;7391776;19;20209;-80
2024/01/11 06:02:46;;;;;;;2.57;2.17;;;-0.60;99.90;;;;;;7393618;19;20248;-80
2024/01/11 06:05:12;;;;;;;5.13;2.80;;;-1.10;99.90;;;;;;7390928;19;20150;-80
2024/01/11 06:07:38;;;;;;;4.57;4.10;;;-0.90;99.90;;;;;;7392373;19;20476;-80
2024/01/11 06:10:05;;;;;;;3.47;2.63;;;-1.00;99.90;;;;;;7393199;19;20138;-80
2024/01/11 06:12:32;;;;;;;2.93;2.47;;;-0.60;99.90;;;;;;7390305;19;20131;-80
2024/01/11 06:14:58;;;;;;;3.63;3.20;;;-0.70;99.90;;;;;;7393703;19;20141;-79
2024/01/11 06:17:24;;;;;;;3.00;2.80;;;-0.50;99.90;;;;;;7393035;19;20127;-80
2024/01/11 06:19:50;;;;;;;3.10;2.80;;;-0.50;99.90;;;;;;7389491;19;20945;-80
2024/01/11 06:22:16;;;;;;;3.40;2.77;;;-0.60;99.90;;;;;;7390285;19;20146;-79
2024/01/11 06:24:41;;;;;;;1.83;1.73;;;-0.80;99.90;;;;;;7389116;19;20485;-79
2024/01/11 06:27:07;;;;;;;4.17;2.40;;;-1.40;99.90;;;;;;7392372;19;20135;-77
2024/01/11 06:29:33;;;;;;;6.23;3.17;;;-1.10;99.90;;;;;;7388254;19;20142;-79
2024/01/11 06:31:58;;;;;;;3.53;2.70;;;-0.80;99.90;;;;;;7390901;19;20550;-79
2024/01/11 06:34:24;;;;;;;2.07;1.97;;;-1.10;99.90;;;;;;7389598;19;20169;-78
2024/01/11 06:36:50;;;;;;;2.57;2.33;;;-1.20;99.90;;;;;;7393285;19;20153;-75
2024/01/11 06:39:16;;;;;;;3.20;2.90;;;-1.50;99.90;;;;;;7391088;19;20151;-76
2024/01/11 06:41:42;;;;;;;2.57;2.13;;;-1.10;99.90;;;;;;7390768;19;20226;-77
2024/01/11 06:44:08;;;;;;;2.47;2.27;;;-0.70;99.90;;;;;;7390280;19;20143;-77
2024/01/11 06:46:35;;;;;;;3.30;2.27;;;-0.60;99.90;;;;;;7389968;19;20170;-77
2024/01/11 06:49:02;;;;;;;3.47;2.50;;;-1.40;99.90;;;;;;7390804;19;20476;-79
2024/01/11 06:51:27;;;;;;;4.23;2.73;;;-1.60;99.90;;;;;;7390734;19;20153;-80
2024/01/11 06:53:54;;;;;;;4.03;3.20;;;-1.70;99.90;;;;;;7390456;19;20146;-80
2024/01/11 06:56:20;;;;;;;2.57;1.93;;;-1.00;99.90;;;;;;7389312;19;20140;-80
2024/01/11 06:58:46;;;;;;;3.07;2.53;;;-0.50;99.90;;;;;;7388165;19;20163;-79
2024/01/11 07:01:13;;;;;;;5.07;2.60;;;-0.50;99.90;;;;;;7388070;19;20242;-79
2024/01/11 07:03:39;;;;;;;2.33;1.93;;;-0.30;99.90;;;;;;7388740;19;20833;-80
2024/01/11 07:06:05;;;;;;;2.07;1.93;;;-0.10;99.90;;;;;;7389111;19;20138;-79
2024/01/11 07:08:34;;;;;;;3.30;2.60;;;-0.10;99.90;;;;;;7389298;19;20218;-78
2024/01/11 07:11:04;;;;;;;2.83;1.70;;;-0.40;99.90;;;;;;7389379;19;20214;-79
2024/01/11 07:13:31;;;;;;;4.97;3.80;;;-0.40;99.90;;;;;;7390825;19;20210;-81
2024/01/11 07:15:57;;;;;;;3.30;2.70;;;-0.50;99.90;;;;;;7388985;19;20230;-80
2024/01/11 07:18:24;;;;;;;1.37;1.27;;;-0.20;99.90;;;;;;7394113;19;20142;-80
2024/01/11 07:20:51;;;;;;;5.00;2.50;;;-0.20;99.90;;;;;;7387951;19;21573;-80
2024/01/11 07:23:18;;;;;;;4.73;3.17;;;-0.20;99.90;;;;;;7390628;19;20154;-78
2024/01/11 07:25:44;;;;;;;3.20;2.27;;;-0.30;99.90;;;;;;7391652;19;20194;-79
2024/01/11 07:28:10;;;;;;;3.87;3.47;;;-0.20;99.90;;;;;;7387522;19;20897;-78
2024/01/11 07:30:36;;;;;;;2.53;2.33;;;-0.10;99.90;;;;;;7388560;19;20579;-78
2024/01/11 07:33:02;;;;;;;6.67;2.37;;;-0.20;99.90;;;;;;7386908;19;20214;-77
2024/01/11 07:35:27;;;;;;;3.07;2.43;;;-0.20;99.90;;;;;;7386899;19;20520;-77
2024/01/11 07:37:54;;;;;;;2.80;2.50;;;-0.10;99.90;;;;;;7389739;19;20162;-77
2024/01/11 07:40:19;;;;;;;2.97;2.20;;;-0.40;99.90;;;;;;7387093;19;20134;-78
2024/01/11 07:42:46;;;;;;;5.07;2.13;;;-0.20;99.90;;;;;;7389567;19;20215;-77
2024/01/11 07:45:12;;;;;;;5.37;2.97;;;-0.10;99.90;;;;;;7390180;19;20130;-76
2024/01/11 07:47:39;;;;;;;3.50;3.20;;;-0.10;99.90;;;;;;7393010;19;20142;-78
2024/01/11 07:50:12;;;;;;;2.63;1.70;;;-0.10;99.90;;;;;;7389708;19;20154;-77
2024/01/11 07:52:38;;;;;;;5.63;2.93;;;-0.70;99.90;;;;;;7385740;19;20194;-78
2024/01/11 07:55:10;;;;;;;2.17;2.07;;;-0.60;99.90;;;;;;7388923;19;20512;-78
2024/01/11 07:57:40;;;;;;;4.53;3.47;;;-0.30;99.90;;;;;;7389023;19;20229;-76
2024/01/11 08:00:06;;;;;;;2.03;1.90;;;0.00;99.90;;;;;;7386825;19;20133;-77
2024/01/11 08:02:33;;;;;;;2.30;2.10;;;0.20;99.90;;;;;;7390314;19;20206;-78
2024/01/11 08:05:01;;;;;;;2.40;2.20;;;0.20;99.90;;;;;;7385984;19;20182;-78
2024/01/11 08:07:28;;;;;;;3.43;3.07;;;0.20;99.90;;;;;;7388402;19;20150;-79
2024/01/11 08:09:55;;;;;;;2.30;2.03;;;0.20;99.90;;;;;;7387447;19;20146;-78
2024/01/11 08:12:21;;;;;;;1.77;1.67;;;0.20;99.90;;;;;;7389606;19;20581;-78
2024/01/11 08:14:47;;;;;;;3.47;3.17;;;0.20;99.90;;;;;;7397357;19;20165;-79
2024/01/11 08:17:16;;;;;;;5.93;3.53;;;0.20;99.90;;;;;;7393983;19;20234;-76
2024/01/11 08:19:44;;;;;;;3.80;2.93;;;0.20;99.90;;;;;;7394077;19;20226;-77
2024/01/11 08:22:11;;;;;;;4.40;3.93;;;0.10;99.90;;;;;;7393091;19;20150;-77
2024/01/11 08:24:38;;;;;;;6.43;3.67;;;0.10;99.90;;;;;;7396696;19;20226;-76
2024/01/11 08:27:04;;;;;;;2.20;2.00;;;-0.20;99.90;;;;;;7395130;19;20243;-79
2024/01/11 08:29:30;;;;;;;7.80;2.50;;;0.00;99.90;;;;;;7394705;19;20265;-79
2024/01/11 08:31:56;;;;;;;2.50;2.40;;;0.10;99.90;;;;;;7392996;19;20488;-78
2024/01/11 08:34:22;;;;;;;3.33;2.53;;;0.10;99.90;;;;;;7395290;19;20154;-78
2024/01/11 08:36:48;;;;;;;3.03;2.73;;;0.20;99.90;;;;;;7395123;19;20143;-78
2024/01/11 08:39:14;;;;;;;4.57;3.07;;;-0.10;99.90;;;;;;7395830;19;20135;-79
2024/01/11 08:41:40;;;;;;;4.60;2.67;;;0.00;99.90;;;;;;7393898;19;20134;-84
2024/01/11 08:44:06;;;;;;;4.33;3.57;;;0.10;99.90;;;;;;7396135;19;20151;-80
2024/01/11 08:46:34;;;;;;;4.27;3.90;;;-0.10;99.90;;;;;;7393675;19;20166;-78
2024/01/11 08:49:03;;;;;;;1.93;1.83;;;-0.30;99.90;;;;;;7391528;19;20170;-79
2024/01/11 08:51:30;;;;;;;3.83;3.20;;;-0.20;99.90;;;;;;7396276;19;20684;-78
2024/01/11 08:53:56;;;;;;;5.73;3.20;;;-0.10;99.90;;;;;;7396432;19;20215;-78
2024/01/11 08:56:22;;;;;;;4.60;3.73;;;0.10;99.90;;;;;;7394486;19;20189;-78
2024/01/11 08:58:48;;;;;;;4.47;2.23;;;0.10;99.90;;;;;;7393713;19;20138;-79
2024/01/11 09:01:15;;;;;;;2.60;2.33;;;0.10;99.90;;;;;;7395382;19;20603;-76
2024/01/11 09:03:41;;;;;;;4.43;3.07;;;0.10;99.90;;;;;;7393232;19;20184;-78
2024/01/11 09:06:07;;;;;;;5.33;4.10;;;0.10;99.90;;;;;;7396329;19;20487;-78
2024/01/11 09:08:33;;;;;;;2.27;2.03;;;0.10;99.90;;;;;;7397972;19;20655;-77
2024/01/11 09:11:00;;;;;;;5.00;3.67;;;0.00;99.90;;;;;;7392111;19;20143;-79
2024/01/11 09:13:27;;;;;;;5.97;3.63;;;0.00;99.90;;;;;;7392827;19;20154;-76
2024/01/11 09:15:54;;;;;;;3.90;3.53;;;0.10;99.90;;;;;;7393396;19;20495;-77
2024/01/11 09:18:20;;;;;;;3.37;3.03;;;0.20;99.90;;;;;;7394199;19;20173;-76
2024/01/11 09:20:47;;;;;;;1.83;1.70;;;0.20;99.90;;;;;;7391557;19;20600;-77
2024/01/11 09:23:13;;;;;;;3.30;2.47;;;0.20;99.90;;;;;;7391926;19;20154;-77
2024/01/11 09:25:39;;;;;;;2.77;2.47;;;0.20;99.90;;;;;;7390361;19;20206;-77
2024/01/11 09:28:05;;;;;;;4.07;3.40;;;0.10;99.90;;;;;;7395816;19;20170;-77
2024/01/11 09:30:31;;;;;;;2.63;2.43;;;0.30;99.90;;;;;;7392149;19;20619;-77
2024/01/11 09:32:57;;;;;;;5.43;4.57;;;0.50;99.90;;;;;;7392136;19;20858;-79
2024/01/11 09:35:23;;;;;;;3.43;2.70;;;0.60;99.90;;;;;;7391868;19;20147;-78
2024/01/11 09:37:52;;;;;;;4.07;3.67;;;0.60;99.90;;;;;;7392211;19;20168;-77
2024/01/11 09:40:18;;;;;;;1.93;1.80;;;0.20;99.90;;;;;;7390723;19;20158;-77
2024/01/11 09:42:44;;;;;;;2.93;2.47;;;0.40;99.90;;;;;;7390592;19;20808;-79
2024/01/11 09:45:13;;;;;;;5.27;3.67;;;0.50;99.90;;;;;;7391064;19;20135;-79
2024/01/11 09:47:40;;;;;;;3.03;2.73;;;0.60;99.90;;;;;;7391461;19;20564;-79
2024/01/11 09:50:10;;;;;;;3.03;2.73;;;0.70;99.90;;;;;;7391526;19;20138;-77
2024/01/11 09:52:38;;;;;;;4.53;3.77;;;0.60;99.90;;;;;;7390988;19;20143;-78
2024/01/11 09:55:04;;;;;;;3.20;2.30;;;0.70;99.90;;;;;;7393665;19;20135;-78
2024/01/11 09:57:32;;;;;;;5.27;3.77;;;0.70;99.90;;;;;;7393034;19;20141;-78
2024/01/11 09:59:58;;;;;;;3.27;2.33;;;0.80;99.90;;;;;;7391953;19;20226;-79
2024/01/11 10:02:28;;;;;;;5.27;3.30;;;0.80;99.90;;;;;;7392364;19;20139;-77
2024/01/11 10:04:54;;;;;;;3.27;2.53;;;0.90;99.90;;;;;;7389121;19;20192;-78
2024/01/11 10:07:25;;;;;;;2.63;2.07;;;0.60;99.90;;;;;;7393480;19;20546;-78
2024/01/11 10:09:51;;;;;;;5.43;2.43;;;0.80;99.90;;;;;;7390102;19;20231;-77
2024/01/11 10:12:25;;;;;;;5.40;3.43;;;0.90;99.90;;;;;;7389296;19;20607;-78
2024/01/11 10:14:54;;;;;;;3.63;3.30;;;0.60;99.90;;;;;;7391037;19;20169;-77
2024/01/11 10:17:20;;;;;;;2.37;2.17;;;0.80;99.90;;;;;;7393818;19;20135;-79
2024/01/11 10:19:46;;;;;;;5.10;3.17;;;1.00;99.90;;;;;;7400407;19;20632;-77
2024/01/11 10:22:17;;;;;;;5.20;3.93;;;1.10;99.90;;;;;;7390515;19;20142;-78
2024/01/11 10:24:43;;;;;;;2.10;1.63;;;1.10;99.90;;;;;;7390029;19;20135;-79
2024/01/11 10:27:11;;;;;;;4.33;2.97;;;1.10;99.90;;;;;;7390674;19;20135;-78
2024/01/11 10:29:37;;;;;;;4.87;3.33;;;1.10;99.90;;;;;;7390491;19;20138;-82
2024/01/11 10:32:06;;;;;;;5.03;4.20;;;1.10;99.90;;;;;;7389171;19;20153;-80
2024/01/11 10:34:32;;;;;;;4.67;3.27;;;1.30;99.90;;;;;;7394029;19;20131;-79
2024/01/11 10:36:58;;;;;;;4.47;2.83;;;1.20;99.90;;;;;;7389351;19;20842;-78
2024/01/11 10:39:25;;;;;;;3.23;2.43;;;1.20;99.90;;;;;;7392078;19;20146;-78
2024/01/11 10:42:04;;;;;;;3.67;3.10;;;1.40;99.90;;;;;;7390163;19;20222;-77
2024/01/11 10:44:33;;;;;;;5.77;3.30;;;1.50;99.90;;;;;;7392031;19;20130;-80
2024/01/11 10:47:01;;;;;;;3.17;2.67;;;1.60;99.90;;;;;;7392011;19;20145;-79
2024/01/11 10:49:28;;;;;;;4.17;3.73;;;1.60;99.90;;;;;;7395318;19;20150;-82
2024/01/11 10:52:06;;;;;;;3.63;3.07;;;1.60;99.90;;;;;;7400106;19;20255;-79
2024/01/11 10:54:34;;;;;;;4.07;3.67;;;1.70;99.90;;;;;;7392784;19;20587;-81
2024/01/11 10:57:00;;;;;;;3.63;3.23;;;1.70;99.90;;;;;;7391236;19;20130;-80
2024/01/11 10:59:31;;;;;;;5.03;3.47;;;1.70;99.90;;;;;;7390536;19;20225;-81
2024/01/11 11:01:59;;;;;;;4.77;3.57;;;1.80;99.90;;;;;;7390952;19;20159;-78
2024/01/11 11:04:26;;;;;;;4.47;3.63;;;1.90;99.90;;;;;;7392281;19;20154;-81
2024/01/11 11:06:58;;;;;;;3.00;2.53;;;1.80;99.90;;;;;;7392339;19;20147;-82
2024/01/11 11:09:25;;;;;;;6.77;3.70;;;2.00;99.90;;;;;;7402200;19;20139;-77
2024/01/11 11:11:55;;;;;;;6.10;4.13;;;2.00;99.90;;;;;;7391499;19;20135;-80
2024/01/11 11:14:22;;;;;;;3.43;3.13;;;2.00;99.90;;;;;;7391614;19;20150;-80
2024/01/11 11:16:48;;;;;;;5.97;2.97;;;2.00;99.90;;;;;;7391194;19;20226;-80
2024/01/11 11:19:14;;;;;;;5.70;4.47;;;1.80;99.90;;;;;;7391215;19;20135;-81
2024/01/11 11:21:44;;;;;;;5.27;3.53;;;2.00;99.90;;;;;;7389734;19;20505;-82
2024/01/11 11:24:12;;;;;;;4.17;3.10;;;2.20;99.90;;;;;;7389594;19;20134;-81
2024/01/11 11:26:38;;;;;;;3.27;2.97;;;2.30;99.90;;;;;;7389262;19;20148;-80
2024/01/11 11:29:04;;;;;;;3.63;2.70;;;2.30;99.90;;;;;;7401717;19;20142;-81
2024/01/11 11:31:45;;;;;;;3.30;2.80;;;2.30;99.90;;;;;;7390862;19;20166;-79
2024/01/11 11:34:14;;;;;;;3.53;2.83;;;2.40;99.90;;;;;;7394111;19;20164;-79
2024/01/11 11:36:43;;;;;;;4.30;3.53;;;2.40;99.90;;;;;;7394647;19;20131;-81
2024/01/11 11:39:14;;;;;;;3.63;1.97;;;2.20;99.90;;;;;;7391509;19;20134;-80
2024/01/11 11:41:42;;;;;;;6.47;4.83;;;2.30;99.90;;;;;;7390275;19;20134;-78
2024/01/11 11:44:12;;;;;;;3.30;3.00;;;1.70;99.90;;;;;;7390447;19;20155;-82
2024/01/11 11:46:38;;;;;;;4.47;2.43;;;2.00;99.90;;;;;;7390216;19;20135;-80
2024/01/11 11:49:04;;;;;;;2.83;2.50;;;2.00;99.90;;;;;;7395751;19;20225;-81
2024/01/11 11:51:30;;;;;;;5.37;3.93;;;2.40;99.90;;;;;;7394517;19;20176;-82
2024/01/11 11:53:57;;;;;;;4.70;3.40;;;2.40;99.90;;;;;;7407287;19;20557;-79
2024/01/11 11:56:23;;;;;;;3.43;2.93;;;2.60;99.90;;;;;;7403816;19;20143;-80
2024/01/11 11:58:49;;;;;;;3.80;3.23;;;2.90;99.90;;;;;;7397496;19;20146;-77
2024/01/11 12:01:17;;;;;;;5.17;4.33;;;2.60;99.90;;;;;;7396030;19;20147;-77
2024/01/11 12:03:49;;;;;;;4.83;3.43;;;2.90;99.90;;;;;;7394899;19;20519;-77
2024/01/11 12:06:20;;;;;;;3.80;3.03;;;3.00;99.90;;;;;;7396163;19;20143;-77
2024/01/11 12:08:47;;;;;;;3.60;3.30;;;3.10;99.90;;;;;;7396826;19;20150;-77
2024/01/11 12:11:15;;;;;;;3.97;3.50;;;3.20;99.90;;;;;;7396013;19;20229;-77
2024/01/11 12:13:41;;;;;;;7.87;4.20;;;2.90;99.90;;;;;;7394804;19;20608;-76
2024/01/11 12:16:07;;;;;;;8.87;3.90;;;2.70;99.90;;;;;;7396788;19;20206;-77
2024/01/11 12:18:33;;;;;;;3.97;3.53;;;3.00;99.90;;;;;;7396088;19;20130;-77
2024/01/11 12:20:59;;;;;;;5.23;3.57;;;3.20;99.90;;;;;;7395173;19;20177;-76
2024/01/11 12:23:29;;;;;;;5.10;4.70;;;3.20;99.90;;;;;;7396642;19;20156;-78
2024/01/11 12:25:56;;;;;;;5.37;4.33;;;3.10;99.90;;;;;;7394904;19;20150;-77
2024/01/11 12:28:24;;;;;;;7.13;4.60;;;3.40;99.90;;;;;;7397897;19;20138;-77
2024/01/11 12:30:50;;;;;;;3.83;3.47;;;3.40;99.90;;;;;;7395921;19;20135;-77
2024/01/11 12:33:17;;;;;;;10.40;5.37;;;3.40;99.90;;;;;;7399042;19;20138;-77
2024/01/11 12:35:43;;;;;;;5.80;4.23;;;3.40;99.90;;;;;;7396557;19;20160;-77
2024/01/11 12:38:11;;;;;;;3.47;3.07;;;3.40;99.90;;;;;;7395099;19;20138;-76
2024/01/11 12:40:38;;;;;;;5.27;3.63;;;3.30;99.90;;;;;;7399021;19;20150;-77
2024/01/11 12:43:04;;;;;;;6.17;4.60;;;3.40;99.90;;;;;;7398425;19;20245;-77
2024/01/11 12:45:32;;;;;;;6.73;5.10;;;3.40;99.90;;;;;;7397445;19;20130;-80
2024/01/11 12:47:59;;;;;;;3.40;3.03;;;3.50;99.90;;;;;;7404930;19;20638;-79
2024/01/11 12:50:32;;;;;;;8.00;3.83;;;3.50;99.90;;;;;;7396816;19;20206;-78